Time;durP1;ratioP1;P1;durP2;ratioP2;P2;SDS_P1;SDS_P2;PMS_P1;PMS_P2;Temp;Humidity;BMP_temperature;BMP_pressure;BME280_temperature;BME280_humidity;BME280_pressure;Samples;Min_cycle;Max_cycle;Signal;HPM_P1;HPM_P2
2022/06/03 00:02:31;;;;;;;4.40;3.67;;;13.40;99.90;;;;;;7402809;19;20018;-80
2022/06/03 00:05:26;;;;;;;5.93;3.72;;;13.40;99.90;;;;;;7401219;19;20015;-79
2022/06/03 00:08:13;;;;;;;5.75;4.18;;;13.20;99.90;;;;;;7401131;19;20018;-79
2022/06/03 00:11:14;;;;;;;5.38;4.00;;;13.30;99.90;;;;;;7402748;19;20030;-79
2022/06/03 00:14:09;;;;;;;6.78;4.13;;;13.30;99.90;;;;;;7398140;19;20015;-80
2022/06/03 00:16:50;;;;;;;6.78;4.65;;;13.30;99.90;;;;;;7399877;19;20079;-80
2022/06/03 00:19:53;;;;;;;6.68;4.72;;;13.30;99.90;;;;;;7402777;19;20026;-80
2022/06/03 00:23:01;;;;;;;6.28;4.30;;;13.40;99.90;;;;;;7399424;19;20014;-79
2022/06/03 00:26:04;;;;;;;7.82;4.57;;;13.30;99.90;;;;;;7400294;19;20010;-79
2022/06/03 00:28:57;;;;;;;6.60;4.13;;;13.10;99.90;;;;;;7402017;19;20491;-78
2022/06/03 00:31:50;;;;;;;6.32;4.25;;;13.00;99.90;;;;;;7404423;19;20095;-79
2022/06/03 00:34:53;;;;;;;6.10;4.05;;;13.00;99.90;;;;;;7398492;19;20015;-79
2022/06/03 00:37:34;;;;;;;6.72;4.15;;;12.90;99.90;;;;;;7399332;19;20070;-79
2022/06/03 00:40:23;;;;;;;6.03;4.50;;;13.00;99.90;;;;;;7400783;19;20017;-79
2022/06/03 00:43:22;;;;;;;6.63;4.68;;;12.90;99.90;;;;;;7403765;19;20010;-79
2022/06/03 00:46:12;;;;;;;7.05;4.45;;;12.90;99.90;;;;;;7402727;19;20007;-79
2022/06/03 00:49:01;;;;;;;6.88;4.07;;;12.80;99.90;;;;;;7399809;19;20042;-79
2022/06/03 00:51:59;;;;;;;6.70;4.53;;;12.80;99.90;;;;;;7402348;19;20039;-79
2022/06/03 00:54:41;;;;;;;6.10;3.85;;;12.70;99.90;;;;;;7400797;19;20021;-79
2022/06/03 00:57:38;;;;;;;6.50;4.72;;;12.60;99.90;;;;;;7400423;19;20010;-80
2022/06/03 01:00:13;;;;;;;6.10;4.50;;;12.70;99.90;;;;;;7402355;19;20604;-80
2022/06/03 01:03:05;;;;;;;5.28;4.35;;;12.50;99.90;;;;;;7398203;19;20018;-80
2022/06/03 01:05:47;;;;;;;7.25;4.80;;;12.40;99.90;;;;;;7401905;19;20014;-80
2022/06/03 01:08:28;;;;;;;8.35;4.90;;;12.70;99.90;;;;;;7401918;19;20021;-79
2022/06/03 01:11:20;;;;;;;8.85;4.53;;;12.50;99.90;;;;;;7401231;19;20042;-79
2022/06/03 01:14:19;;;;;;;7.15;4.55;;;12.50;99.90;;;;;;7399937;19;20042;-79
2022/06/03 01:17:05;;;;;;;7.93;5.20;;;12.40;99.90;;;;;;7405921;19;20022;-80
2022/06/03 01:20:00;;;;;;;9.35;5.18;;;12.40;99.90;;;;;;7401386;19;20018;-79
2022/06/03 01:22:54;;;;;;;6.78;4.63;;;12.30;99.90;;;;;;7398858;19;20473;-79
2022/06/03 01:25:42;;;;;;;7.93;5.00;;;12.30;99.90;;;;;;7395492;19;20034;-79
2022/06/03 01:28:43;;;;;;;8.70;5.05;;;12.30;99.90;;;;;;7400791;19;20014;-81
2022/06/03 01:31:55;;;;;;;8.82;4.97;;;12.30;99.90;;;;;;7398560;19;20013;-80
2022/06/03 01:34:44;;;;;;;7.88;5.10;;;12.30;99.90;;;;;;7391159;19;20093;-80
2022/06/03 01:37:25;;;;;;;9.57;5.75;;;12.30;99.90;;;;;;7397320;19;20024;-79
2022/06/03 01:40:19;;;;;;;7.18;4.78;;;12.30;99.90;;;;;;7400263;19;20030;-80
2022/06/03 01:43:20;;;;;;;8.68;5.15;;;12.20;99.90;;;;;;7399529;19;20074;-80
2022/06/03 01:46:05;;;;;;;7.95;5.38;;;12.20;99.90;;;;;;7401069;19;20094;-80
2022/06/03 01:49:11;;;;;;;9.15;5.35;;;12.10;99.90;;;;;;7398010;19;20014;-80
2022/06/03 01:52:14;;;;;;;7.50;5.32;;;12.10;99.90;;;;;;7396775;19;20034;-80
2022/06/03 01:55:30;;;;;;;9.55;5.45;;;12.10;99.90;;;;;;7397354;19;20031;-80
2022/06/03 01:58:29;;;;;;;7.43;4.90;;;12.10;99.90;;;;;;7402485;19;20034;-81
2022/06/03 02:01:10;;;;;;;10.68;5.72;;;12.00;99.90;;;;;;7394987;19;20026;-80
2022/06/03 02:04:22;;;;;;;8.10;5.35;;;12.00;99.90;;;;;;7401002;19;20014;-80
2022/06/03 02:07:30;;;;;;;8.68;5.30;;;11.70;99.90;;;;;;7402331;19;20018;-80
2022/06/03 02:10:41;;;;;;;9.73;5.35;;;12.00;99.90;;;;;;7398914;19;20072;-80
2022/06/03 02:13:46;;;;;;;8.82;5.15;;;12.00;99.90;;;;;;7404358;19;20010;-80
2022/06/03 02:16:36;;;;;;;9.40;5.22;;;11.80;99.90;;;;;;7398241;19;20017;-79
2022/06/03 02:19:24;;;;;;;8.43;4.82;;;11.70;99.90;;;;;;7398460;19;20019;-79
2022/06/03 02:22:28;;;;;;;8.88;5.40;;;11.60;99.90;;;;;;7396297;19;20018;-80
2022/06/03 02:25:23;;;;;;;8.43;5.35;;;11.60;99.90;;;;;;7399492;19;20018;-79
2022/06/03 02:28:21;;;;;;;8.60;4.85;;;11.20;99.90;;;;;;7396032;19;20010;-80
2022/06/03 02:31:08;;;;;;;7.70;4.80;;;11.40;99.90;;;;;;7398923;19;20018;-81
2022/06/03 02:34:05;;;;;;;7.88;5.00;;;11.60;99.90;;;;;;7397026;19;20031;-81
2022/06/03 02:37:04;;;;;;;10.13;5.45;;;11.50;99.90;;;;;;7396559;19;20003;-78
2022/06/03 02:40:09;;;;;;;8.27;5.07;;;11.40;99.90;;;;;;7395831;19;20011;-80
2022/06/03 02:43:05;;;;;;;8.30;5.05;;;11.40;99.90;;;;;;7397348;19;20018;-80
2022/06/03 02:46:06;;;;;;;9.25;5.25;;;11.30;99.90;;;;;;7399885;19;20019;-80
2022/06/03 02:49:04;;;;;;;10.52;5.85;;;11.30;99.90;;;;;;7397630;19;20011;-80
2022/06/03 02:52:10;;;;;;;12.93;5.82;;;11.40;99.90;;;;;;7398225;19;20018;-80
2022/06/03 02:55:13;;;;;;;10.88;5.93;;;11.60;99.90;;;;;;7397106;19;20022;-80
2022/06/03 02:58:34;;;;;;;10.65;5.68;;;11.30;99.90;;;;;;7397527;19;20011;-80
2022/06/03 03:01:39;;;;;;;11.43;5.97;;;11.30;99.90;;;;;;7395130;19;20011;-80
2022/06/03 03:04:42;;;;;;;11.02;5.60;;;11.00;99.90;;;;;;7396691;19;20014;-80
2022/06/03 03:07:27;;;;;;;8.40;6.13;;;11.20;99.90;;;;;;7398502;19;20529;-80
2022/06/03 03:10:20;;;;;;;8.73;6.28;;;11.20;99.90;;;;;;7398428;19;20019;-80
2022/06/03 03:13:11;;;;;;;11.65;6.53;;;11.20;99.90;;;;;;7404895;19;20011;-80
2022/06/03 03:16:15;;;;;;;10.50;6.38;;;11.20;99.90;;;;;;7408021;19;20011;-80
2022/06/03 03:19:32;;;;;;;7.53;5.95;;;11.10;99.90;;;;;;7405664;19;20011;-79
2022/06/03 03:22:17;;;;;;;;;;;11.10;99.90;;;;;;7408227;19;20015;-81
2022/06/03 03:25:10;;;;;;;9.38;6.07;;;11.10;99.90;;;;;;7404792;19;19929;-80
2022/06/03 03:28:13;;;;;;;10.57;6.15;;;11.20;99.90;;;;;;7407843;19;20032;-81
2022/06/03 03:30:48;;;;;;;9.65;5.95;;;11.10;99.90;;;;;;7407164;19;20044;-80
2022/06/03 03:33:34;;;;;;;9.77;6.20;;;11.20;99.90;;;;;;7405153;19;20517;-81
2022/06/03 03:36:26;;;;;;;10.55;6.45;;;11.00;99.90;;;;;;7404602;19;20031;-80
2022/06/03 03:39:25;;;;;;;12.43;6.88;;;11.00;99.90;;;;;;7405726;19;20424;-80
2022/06/03 03:42:36;;;;;;;12.00;6.30;;;11.00;99.90;;;;;;7404247;19;20014;-80
2022/06/03 03:45:39;;;;;;;10.10;6.15;;;11.10;99.90;;;;;;7403889;19;20014;-80
2022/06/03 03:48:46;;;;;;;9.73;6.25;;;11.00;99.90;;;;;;7406188;19;20018;-79
2022/06/03 03:51:29;;;;;;;;;;;11.10;99.90;;;;;;7410860;19;20066;-80
2022/06/03 03:54:24;;;;;;;7.95;5.65;;;11.00;99.90;;;;;;7404100;19;19982;-80
2022/06/03 03:57:35;;;;;;;10.90;5.72;;;11.00;99.90;;;;;;7404290;19;20035;-80
2022/06/03 04:00:32;;;;;;;9.45;6.10;;;10.90;99.90;;;;;;7405786;19;20015;-79
2022/06/03 04:03:27;;;;;;;12.45;6.03;;;11.00;99.90;;;;;;7403534;19;20392;-79
2022/06/03 04:06:26;;;;;;;8.75;6.18;;;11.00;99.90;;;;;;7408018;19;20029;-81
2022/06/03 04:09:44;;;;;;;9.65;6.10;;;10.90;99.90;;;;;;7404592;19;20007;-80
2022/06/03 04:12:44;;;;;;;11.90;6.25;;;10.90;99.90;;;;;;7402731;19;20407;-80
2022/06/03 04:15:51;;;;;;;10.15;6.30;;;11.00;99.90;;;;;;7404822;19;20023;-79
2022/06/03 04:18:54;;;;;;;10.00;6.32;;;11.10;99.90;;;;;;7404536;19;20017;-80
2022/06/03 04:21:52;;;;;;;9.50;6.50;;;10.90;99.90;;;;;;7401234;19;20018;-80
2022/06/03 04:25:06;;;;;;;9.07;6.43;;;11.10;99.90;;;;;;7401123;19;20027;-81
2022/06/03 04:28:05;;;;;;;9.05;6.03;;;11.00;99.90;;;;;;7399106;19;20041;-80
2022/06/03 04:31:16;;;;;;;11.13;6.80;;;11.00;99.90;;;;;;7401238;19;20512;-80
2022/06/03 04:33:57;;;;;;;9.35;6.25;;;11.00;99.90;;;;;;7399075;19;20051;-81
2022/06/03 04:37:07;;;;;;;11.30;6.90;;;10.60;99.90;;;;;;7401153;19;20019;-80
2022/06/03 04:40:17;;;;;;;10.07;6.72;;;11.10;99.90;;;;;;7399614;19;20006;-80
2022/06/03 04:43:31;;;;;;;12.20;6.32;;;11.10;99.90;;;;;;7404020;19;20086;-81
2022/06/03 04:46:38;;;;;;;10.15;6.10;;;11.10;99.90;;;;;;7407071;19;20015;-80
2022/06/03 04:49:50;;;;;;;9.52;5.80;;;11.10;99.90;;;;;;7403297;19;20034;-80
2022/06/03 04:52:53;;;;;;;11.38;6.07;;;11.20;99.90;;;;;;7402676;19;20022;-80
2022/06/03 04:55:58;;;;;;;12.82;6.22;;;11.20;99.90;;;;;;7400421;19;20017;-81
2022/06/03 04:58:59;;;;;;;14.13;7.30;;;11.10;99.90;;;;;;7404476;19;20031;-81
2022/06/03 05:01:58;;;;;;;12.30;6.05;;;11.10;99.90;;;;;;7402915;19;20010;-81
2022/06/03 05:04:57;;;;;;;10.73;6.40;;;11.20;99.90;;;;;;7404086;19;20022;-81
2022/06/03 05:08:12;;;;;;;12.10;6.72;;;11.10;99.90;;;;;;7403678;19;20018;-80
2022/06/03 05:11:15;;;;;;;7.82;5.80;;;11.20;99.90;;;;;;7399198;19;20025;-81
2022/06/03 05:14:32;;;;;;;11.75;6.05;;;11.30;99.90;;;;;;7405319;19;20034;-79
2022/06/03 05:17:43;;;;;;;10.07;6.13;;;11.30;99.90;;;;;;7403331;19;20007;-81
2022/06/03 05:20:37;;;;;;;10.15;5.88;;;11.50;99.90;;;;;;7401221;19;21014;-80
2022/06/03 05:23:41;;;;;;;10.27;6.05;;;11.30;99.90;;;;;;7399108;19;20355;-80
2022/06/03 05:26:37;;;;;;;8.43;5.05;;;11.40;99.90;;;;;;7400571;19;20018;-80
2022/06/03 05:29:31;;;;;;;10.35;6.05;;;11.70;99.90;;;;;;7402529;19;20038;-80
2022/06/03 05:32:31;;;;;;;10.95;6.10;;;11.50;99.90;;;;;;7405045;19;20011;-80
2022/06/03 05:35:21;;;;;;;8.00;5.68;;;11.50;99.90;;;;;;7400561;19;20111;-81
2022/06/03 05:38:34;;;;;;;10.93;5.90;;;11.50;99.90;;;;;;7402644;19;20479;-80
2022/06/03 05:44:48;;;;;;;8.00;5.95;;;11.80;99.90;;;;;;7400040;19;20024;-80
2022/06/03 05:47:22;;;;;;;9.20;5.50;;;11.80;99.90;;;;;;7398841;19;20007;-82
2022/06/03 05:50:03;;;;;;;8.68;5.55;;;11.80;99.90;;;;;;7398342;19;20033;-80
2022/06/03 05:52:45;;;;;;;12.73;5.63;;;12.00;99.90;;;;;;7394960;19;20026;-80
2022/06/03 05:55:28;;;;;;;8.80;5.80;;;11.90;99.90;;;;;;7399991;19;20014;-80
2022/06/03 05:58:21;;;;;;;9.65;5.78;;;11.90;99.90;;;;;;7394308;19;20015;-81
2022/06/03 06:01:08;;;;;;;9.55;6.00;;;12.00;99.90;;;;;;7399155;19;20022;-80
2022/06/03 06:03:50;;;;;;;10.05;6.20;;;12.00;99.90;;;;;;7396337;19;20011;-80
2022/06/03 06:06:41;;;;;;;10.57;6.72;;;12.10;99.90;;;;;;7395993;19;20498;-80
2022/06/03 06:09:43;;;;;;;9.38;6.07;;;12.30;99.90;;;;;;7397297;19;20018;-79
2022/06/03 06:12:26;;;;;;;10.55;5.97;;;12.00;99.90;;;;;;7396917;19;20034;-81
2022/06/03 06:15:26;;;;;;;10.13;6.03;;;12.20;99.90;;;;;;7393497;19;20522;-78
2022/06/03 06:18:11;;;;;;;9.38;5.32;;;12.20;99.90;;;;;;7396115;19;20457;-81
2022/06/03 06:21:06;;;;;;;9.45;5.78;;;12.10;99.90;;;;;;7397123;19;20084;-80
2022/06/03 06:23:46;;;;;;;8.18;5.10;;;12.20;99.90;;;;;;7398386;19;20021;-80
2022/06/03 06:26:43;;;;;;;9.32;5.53;;;12.30;99.90;;;;;;7400412;19;20513;-80
2022/06/03 06:29:45;;;;;;;9.18;5.47;;;12.30;99.90;;;;;;7383319;19;20509;-81
2022/06/03 06:32:45;;;;;;;9.00;5.70;;;12.30;99.90;;;;;;7374162;19;20316;-80
2022/06/03 06:35:53;;;;;;;10.15;5.13;;;12.40;99.90;;;;;;7381596;19;20021;-80
2022/06/03 06:38:34;;;;;;;7.00;4.50;;;12.50;99.90;;;;;;7385309;19;20011;-81
2022/06/03 06:41:22;;;;;;;8.45;4.65;;;12.50;99.90;;;;;;7386709;19;20007;-80
2022/06/03 06:43:59;;;;;;;11.00;4.97;;;12.60;99.90;;;;;;7385054;19;20042;-80
2022/06/03 06:46:42;;;;;;;9.98;4.68;;;12.50;99.90;;;;;;7385939;19;20584;-81
2022/06/03 06:49:27;;;;;;;6.68;4.20;;;12.60;99.90;;;;;;7393108;19;20021;-81
2022/06/03 06:52:14;;;;;;;8.13;4.00;;;12.70;99.90;;;;;;7393745;19;20026;-78
2022/06/03 06:55:01;;;;;;;7.57;4.03;;;12.70;99.90;;;;;;7386827;19;20019;-79
2022/06/03 06:57:35;;;;;;;5.90;3.83;;;12.70;99.90;;;;;;7384200;19;20015;-79
2022/06/03 07:00:11;;;;;;;5.78;3.55;;;12.70;99.90;;;;;;7398724;19;20089;-79
2022/06/03 07:02:52;;;;;;;9.20;3.63;;;12.80;99.90;;;;;;7400609;19;20070;-81
2022/06/03 07:05:32;;;;;;;4.25;3.03;;;13.00;99.90;;;;;;7384606;19;20026;-79
2022/06/03 07:08:10;;;;;;;5.75;3.10;;;12.90;99.90;;;;;;7372084;19;20018;-79
2022/06/03 07:10:51;;;;;;;5.80;3.60;;;13.10;99.90;;;;;;7382485;19;20347;-79
2022/06/03 07:13:36;;;;;;;3.67;2.83;;;13.10;99.90;;;;;;7380968;19;20019;-79
2022/06/03 07:19:47;;;;;;;4.68;3.00;;;13.20;99.90;;;;;;7379909;19;20022;-79
2022/06/03 07:22:09;;;;;;;5.47;2.95;;;13.30;99.90;;;;;;7380337;19;20029;-79
2022/06/03 07:24:47;;;;;;;4.63;2.95;;;13.20;99.90;;;;;;7380963;19;20002;-79
2022/06/03 07:27:23;;;;;;;5.63;2.75;;;13.20;99.90;;;;;;7381568;19;20024;-79
2022/06/03 07:30:06;;;;;;;3.97;2.90;;;13.30;99.90;;;;;;7379276;19;20022;-79
2022/06/03 07:32:45;;;;;;;4.32;2.80;;;13.40;99.90;;;;;;7379615;19;20070;-79
2022/06/03 07:35:22;;;;;;;5.80;2.85;;;13.30;99.90;;;;;;7380379;19;20019;-79
2022/06/03 07:38:05;;;;;;;6.00;3.13;;;13.50;99.90;;;;;;7385091;19;20010;-79
2022/06/03 07:40:42;;;;;;;5.45;2.83;;;13.50;99.90;;;;;;7397842;19;20031;-79
2022/06/03 07:43:19;;;;;;;4.45;2.72;;;13.60;99.90;;;;;;7399263;19;20013;-81
2022/06/03 07:45:53;;;;;;;5.75;2.95;;;13.50;99.90;;;;;;7399427;19;20017;-79
2022/06/03 07:48:25;;;;;;;6.13;2.70;;;13.70;99.90;;;;;;7398807;19;20102;-79
2022/06/03 07:51:02;;;;;;;5.45;2.67;;;13.80;99.90;;;;;;7401203;19;20046;-79
2022/06/03 07:53:46;;;;;;;3.72;2.65;;;13.80;99.90;;;;;;7400412;19;20010;-79
2022/06/03 07:56:24;;;;;;;6.00;2.90;;;13.70;99.90;;;;;;7395469;19;20006;-79
2022/06/03 07:59:00;;;;;;;6.05;2.88;;;13.80;99.90;;;;;;7395582;19;20019;-80
2022/06/03 08:01:34;;;;;;;4.85;2.95;;;13.80;99.90;;;;;;7402794;19;20370;-80
2022/06/03 08:04:04;;;;;;;3.97;2.50;;;13.90;99.90;;;;;;7399117;19;20415;-80
2022/06/03 08:12:07;;;;;;;4.90;2.03;;;14.00;99.90;;;;;;7397750;19;20018;-80
2022/06/03 08:14:40;;;;;;;2.92;2.00;;;14.10;99.90;;;;;;7396640;19;20025;-80
2022/06/03 08:17:12;;;;;;;4.50;2.10;;;14.20;99.90;;;;;;7394668;19;20014;-80
2022/06/03 08:19:43;;;;;;;4.20;1.95;;;14.20;99.90;;;;;;7396988;19;20014;-80
2022/06/03 08:22:18;;;;;;;3.63;1.95;;;14.10;99.90;;;;;;7395801;19;20158;-79
2022/06/03 08:24:55;;;;;;;4.43;1.97;;;14.30;99.90;;;;;;7398858;19;20018;-80
2022/06/03 08:27:35;;;;;;;5.20;1.83;;;14.20;99.90;;;;;;7398926;19;20311;-80
2022/06/03 08:30:08;;;;;;;3.45;1.80;;;14.50;99.90;;;;;;7397695;19;20033;-80
2022/06/03 08:32:42;;;;;;;3.05;1.73;;;14.50;99.90;;;;;;7399099;19;20050;-80
2022/06/03 08:35:20;;;;;;;;;;;14.60;99.90;;;;;;7397819;19;20025;-80
2022/06/03 08:37:56;;;;;;;2.58;1.70;;;14.60;99.90;;;;;;7397697;19;20480;-80
2022/06/03 08:40:37;;;;;;;2.97;1.77;;;14.50;99.90;;;;;;7397611;19;20014;-80
2022/06/03 08:43:19;;;;;;;4.00;1.50;;;14.60;99.90;;;;;;7397203;19;20621;-80
2022/06/03 08:45:55;;;;;;;3.08;1.50;;;14.70;99.90;;;;;;7399837;19;20015;-80
2022/06/03 08:48:33;;;;;;;4.68;2.00;;;14.70;99.90;;;;;;7397406;19;20018;-81
2022/06/03 08:51:13;;;;;;;1.95;1.60;;;14.80;99.90;;;;;;7395436;19;20018;-80
2022/06/03 08:53:51;;;;;;;3.55;1.60;;;15.00;99.90;;;;;;7394801;19;20015;-80
2022/06/03 08:56:33;;;;;;;5.20;1.77;;;14.90;99.90;;;;;;7395225;19;20020;-81
2022/06/03 08:59:13;;;;;;;3.17;1.80;;;15.10;99.90;;;;;;7393668;19;20465;-80
2022/06/03 09:01:51;;;;;;;5.20;2.10;;;15.10;99.90;;;;;;7395877;19;20011;-80
2022/06/03 09:04:28;;;;;;;4.32;1.88;;;15.10;99.90;;;;;;7395133;19;20010;-80
2022/06/03 09:07:10;;;;;;;2.95;1.80;;;15.30;99.90;;;;;;7394980;19;20033;-80
2022/06/03 09:09:47;;;;;;;3.33;2.00;;;15.30;99.90;;;;;;7399741;19;20018;-80
2022/06/03 09:12:44;;;;;;;3.97;2.15;;;15.40;99.90;;;;;;7397147;19;20006;-80
2022/06/03 09:15:21;;;;;;;4.10;2.00;;;15.40;99.90;;;;;;7392295;19;20022;-80
2022/06/03 09:17:56;;;;;;;4.60;2.03;;;15.40;99.90;;;;;;7395501;19;20019;-80
2022/06/03 09:20:33;;;;;;;3.70;1.95;;;15.60;99.90;;;;;;7397715;19;20086;-80
2022/06/03 09:23:09;;;;;;;4.03;2.00;;;15.60;99.90;;;;;;7394679;19;20011;-80
2022/06/03 09:25:47;;;;;;;3.67;2.13;;;15.80;99.90;;;;;;7396531;19;20041;-80
2022/06/03 09:28:27;;;;;;;3.45;2.00;;;15.80;99.90;;;;;;7395604;19;20006;-80
2022/06/03 09:30:59;;;;;;;4.75;2.30;;;15.90;99.90;;;;;;7397797;19;20031;-80
2022/06/03 09:33:31;;;;;;;4.43;2.33;;;15.80;99.90;;;;;;7393143;19;20131;-81
2022/06/03 09:36:05;;;;;;;5.22;2.25;;;15.90;99.90;;;;;;7394597;19;20095;-80
2022/06/03 09:38:48;;;;;;;2.63;1.80;;;16.20;99.90;;;;;;7396804;19;20010;-80
2022/06/03 09:41:24;;;;;;;3.75;2.20;;;16.30;99.90;;;;;;7395995;19;20498;-80
2022/06/03 09:43:58;;;;;;;3.58;2.05;;;16.10;99.90;;;;;;7396280;19;20021;-80
2022/06/03 09:46:32;;;;;;;5.15;1.83;;;16.30;99.90;;;;;;7396547;19;20018;-80
2022/06/03 09:49:04;;;;;;;5.50;2.10;;;16.30;99.90;;;;;;7393651;19;20521;-80
2022/06/03 09:54:25;;;;;;;3.55;2.20;;;16.50;99.90;;;;;;7396876;19;20015;-81
2022/06/03 09:56:58;;;;;;;4.07;2.30;;;16.60;99.90;;;;;;7393440;19;20370;-81
2022/06/03 09:59:32;;;;;;;4.20;2.10;;;16.80;99.90;;;;;;7396489;19;20014;-81
2022/06/03 10:02:02;;;;;;;4.72;2.20;;;16.80;99.90;;;;;;7396856;19;20018;-81
2022/06/03 10:04:40;;;;;;;3.92;2.47;;;16.90;99.90;;;;;;7393370;19;20026;-81
2022/06/03 10:13:09;;;;;;;4.50;2.50;;;17.20;99.90;;;;;;7391840;19;20127;-81
2022/06/03 10:15:53;;;;;;;3.63;2.30;;;17.20;99.90;;;;;;7395683;19;20007;-80
2022/06/03 10:18:39;;;;;;;4.85;2.58;;;17.20;99.60;;;;;;7396889;19;20085;-79
2022/06/03 10:21:34;;;;;;;4.22;2.42;;;17.30;99.80;;;;;;7393836;19;20021;-80
2022/06/03 10:24:09;;;;;;;4.55;2.70;;;17.20;99.70;;;;;;7393531;19;20042;-79
2022/06/03 10:26:49;;;;;;;3.33;2.45;;;17.50;99.40;;;;;;7394608;19;20034;-80
2022/06/03 10:29:25;;;;;;;6.32;2.42;;;17.60;99.60;;;;;;7397086;19;20017;-80
2022/06/03 10:32:02;;;;;;;4.13;2.20;;;17.70;98.90;;;;;;7392518;19;20017;-80
2022/06/03 10:34:40;;;;;;;2.63;2.10;;;17.70;99.20;;;;;;7390900;19;20492;-80
2022/06/03 10:37:12;;;;;;;2.60;2.13;;;17.90;98.70;;;;;;7385867;19;20015;-80
2022/06/03 10:39:46;;;;;;;3.47;2.40;;;17.80;98.50;;;;;;7398594;19;20477;-81
2022/06/03 10:42:19;;;;;;;4.85;2.40;;;18.00;98.90;;;;;;7391897;19;20011;-80
2022/06/03 10:44:57;;;;;;;4.18;2.20;;;17.90;98.00;;;;;;7393283;19;20027;-79
2022/06/03 10:47:38;;;;;;;4.38;2.22;;;18.40;98.20;;;;;;7395297;19;20011;-80
2022/06/03 10:50:14;;;;;;;4.07;2.60;;;18.10;97.70;;;;;;7392869;19;20013;-80
2022/06/03 11:01:20;;;;;;;3.63;2.45;;;18.30;97.00;;;;;;7392429;19;20011;-80
2022/06/03 11:03:57;;;;;;;3.10;2.20;;;18.70;96.80;;;;;;7388027;19;20390;-80
2022/06/03 11:06:29;;;;;;;3.63;2.20;;;18.50;95.80;;;;;;7389115;19;20077;-80
2022/06/03 11:09:10;;;;;;;3.33;2.10;;;18.70;96.50;;;;;;7387142;19;20369;-80
2022/06/03 11:11:45;;;;;;;3.03;2.08;;;19.00;96.30;;;;;;7393754;19;20018;-78
2022/06/03 11:14:32;;;;;;;4.10;2.15;;;19.00;96.30;;;;;;7394004;19;20476;-77
2022/06/03 11:17:09;;;;;;;3.70;2.53;;;19.00;96.60;;;;;;7386862;19;20489;-80
2022/06/03 11:19:46;;;;;;;4.40;2.10;;;19.10;96.70;;;;;;7392786;19;20006;-80
2022/06/03 11:22:27;;;;;;;4.93;2.10;;;19.20;96.60;;;;;;7394338;19;20026;-81
2022/06/03 11:25:06;;;;;;;3.78;2.10;;;19.20;95.80;;;;;;7390425;19;20018;-79
2022/06/03 11:27:41;;;;;;;6.45;2.10;;;19.30;95.50;;;;;;7395781;19;20014;-79
2022/06/03 11:30:18;;;;;;;3.60;2.08;;;19.50;95.40;;;;;;7389779;19;20019;-77
2022/06/03 11:32:51;;;;;;;3.20;2.10;;;19.50;94.80;;;;;;7394055;19;20031;-77
2022/06/03 11:35:30;;;;;;;3.13;2.03;;;19.50;94.90;;;;;;7395844;19;20020;-78
2022/06/03 11:38:03;;;;;;;3.05;1.90;;;19.70;93.30;;;;;;7398776;19;20015;-78
2022/06/03 11:40:37;;;;;;;3.85;2.38;;;19.80;94.40;;;;;;7396472;19;20030;-82
2022/06/03 11:43:16;;;;;;;3.75;2.05;;;19.90;94.10;;;;;;7401971;19;20105;-78
2022/06/03 11:45:50;;;;;;;4.15;2.42;;;19.90;94.70;;;;;;7398931;19;20018;-77
2022/06/03 11:48:28;;;;;;;2.60;2.03;;;20.00;94.50;;;;;;7398825;19;20014;-77
2022/06/03 11:51:01;;;;;;;4.32;2.20;;;19.70;94.10;;;;;;7398709;19;20417;-78
2022/06/03 11:53:34;;;;;;;6.13;2.58;;;19.80;94.30;;;;;;7398336;19;20347;-77
2022/06/03 11:56:07;;;;;;;4.85;2.40;;;20.10;95.00;;;;;;7397612;19;20011;-86
2022/06/03 11:58:59;;;;;;;3.72;2.30;;;20.00;94.40;;;;;;7402847;19;20035;-86
2022/06/03 12:01:46;;;;;;;2.50;1.90;;;20.30;93.30;;;;;;7400049;19;20038;-90
2022/06/03 12:04:25;;;;;;;2.53;1.80;;;20.40;94.30;;;;;;7396460;19;20007;-85
2022/06/03 12:07:08;;;;;;;4.25;2.05;;;20.60;93.10;;;;;;7397480;19;20473;-85
2022/06/03 12:09:47;;;;;;;5.55;1.70;;;20.50;92.40;;;;;;7397899;19;20019;-84
2022/06/03 12:15:38;;;;;;;4.07;2.00;;;20.90;92.30;;;;;;7396554;19;20003;-84
2022/06/03 12:18:21;;;;;;;4.93;1.90;;;21.00;90.00;;;;;;7395191;19;20359;-85
2022/06/03 12:20:57;;;;;;;2.30;1.80;;;21.10;89.20;;;;;;7398511;19;20006;-85
2022/06/03 12:23:53;;;;;;;4.57;2.28;;;21.00;89.80;;;;;;7397839;19;20015;-85
2022/06/03 12:26:31;;;;;;;2.28;1.50;;;20.80;86.40;;;;;;7400486;19;20019;-84
2022/06/03 12:29:10;;;;;;;4.07;1.67;;;21.10;90.60;;;;;;7399026;19;20029;-85
2022/06/03 12:31:44;;;;;;;2.85;1.90;;;20.90;89.10;;;;;;7396303;19;20017;-85
2022/06/03 12:34:23;;;;;;;3.38;2.05;;;21.20;88.80;;;;;;7399765;19;20341;-85
2022/06/03 12:37:00;;;;;;;3.72;1.88;;;21.10;88.40;;;;;;7396958;19;20027;-85
2022/06/03 12:39:34;;;;;;;3.08;1.67;;;21.10;88.60;;;;;;7399190;19;20569;-85
2022/06/03 12:42:08;;;;;;;3.30;1.90;;;21.00;88.10;;;;;;7399630;19;20014;-86
2022/06/03 12:44:42;;;;;;;3.15;1.80;;;21.30;88.10;;;;;;7401831;19;20368;-85
2022/06/03 12:47:28;;;;;;;2.85;1.80;;;21.50;86.60;;;;;;7398925;19;20082;-86
2022/06/03 12:50:21;;;;;;;2.30;1.52;;;21.70;85.70;;;;;;7397264;19;20034;-84
2022/06/03 12:52:52;;;;;;;3.50;1.60;;;21.90;86.00;;;;;;7395652;19;20458;-86
2022/06/03 12:55:31;;;;;;;3.53;1.80;;;21.90;85.80;;;;;;7395494;19;20391;-85
2022/06/03 12:58:04;;;;;;;2.88;1.75;;;22.20;83.70;;;;;;7395427;19;20504;-86
2022/06/03 13:00:38;;;;;;;3.33;1.80;;;22.30;83.10;;;;;;7398934;19;20014;-85
2022/06/03 13:03:10;;;;;;;2.22;1.70;;;22.40;80.30;;;;;;7395840;19;20023;-86
2022/06/03 13:05:44;;;;;;;2.70;1.60;;;22.50;79.90;;;;;;7396200;19;20014;-85
2022/06/03 13:08:34;;;;;;;2.50;1.27;;;22.40;78.40;;;;;;7397657;19;20010;-87
2022/06/03 13:11:09;;;;;;;1.90;1.30;;;22.70;79.00;;;;;;7396799;19;20015;-85
2022/06/03 13:14:18;;;;;;;2.83;1.70;;;23.00;77.10;;;;;;7397717;19;20026;-85
2022/06/03 13:16:50;;;;;;;4.13;1.83;;;22.90;74.90;;;;;;7398307;19;20267;-86
2022/06/03 13:19:52;;;;;;;2.58;1.30;;;23.10;77.90;;;;;;7396567;19;20035;-86
2022/06/03 13:22:51;;;;;;;2.30;1.30;;;23.10;73.90;;;;;;7394790;19;20470;-88
2022/06/03 13:25:43;;;;;;;4.38;1.88;;;23.30;72.40;;;;;;7396963;19;20014;-86
2022/06/03 13:28:43;;;;;;;3.58;1.42;;;23.40;71.70;;;;;;7398388;19;20074;-85
2022/06/03 13:31:20;;;;;;;1.63;1.20;;;23.40;71.60;;;;;;7395626;19;20007;-87
2022/06/03 13:34:20;;;;;;;2.22;1.27;;;23.40;72.40;;;;;;7398903;19;20078;-87
2022/06/03 13:37:31;;;;;;;3.20;1.30;;;23.60;70.30;;;;;;7395157;19;20069;-86
2022/06/03 13:40:10;;;;;;;1.98;1.38;;;23.80;68.40;;;;;;7396529;19;20019;-88
2022/06/03 13:43:18;;;;;;;2.00;1.23;;;24.00;67.60;;;;;;7396659;19;20015;-87
2022/06/03 13:46:13;;;;;;;2.17;1.30;;;24.00;67.00;;;;;;7394988;19;20030;-88
2022/06/03 13:48:55;;;;;;;3.10;1.40;;;24.00;65.50;;;;;;7395664;19;20035;-88
2022/06/03 13:51:58;;;;;;;2.80;1.40;;;24.00;68.10;;;;;;7398397;19;20006;-87
2022/06/03 13:54:41;;;;;;;3.00;1.38;;;24.20;65.00;;;;;;7394771;19;20010;-87
2022/06/03 13:57:27;;;;;;;2.65;1.33;;;24.30;65.60;;;;;;7393329;19;20014;-88
2022/06/03 14:00:21;;;;;;;2.40;1.27;;;24.60;63.90;;;;;;7400955;19;20513;-87
2022/06/03 14:03:19;;;;;;;2.30;1.20;;;24.90;64.30;;;;;;7395334;19;20007;-87
2022/06/03 14:06:09;;;;;;;2.50;1.30;;;24.70;64.40;;;;;;7395583;19;20023;-87
2022/06/03 14:08:50;;;;;;;1.98;1.27;;;24.70;63.10;;;;;;7400845;19;20022;-86
2022/06/03 14:11:31;;;;;;;2.40;1.30;;;25.10;64.90;;;;;;7394632;19;20015;-87
2022/06/03 14:14:11;;;;;;;2.53;1.20;;;25.00;64.00;;;;;;7397297;19;20410;-88
2022/06/03 14:16:48;;;;;;;1.20;1.10;;;25.10;64.60;;;;;;7394247;19;20010;-86
2022/06/03 14:19:44;;;;;;;2.75;1.20;;;25.30;62.50;;;;;;7393099;19;20029;-88
2022/06/03 14:22:34;;;;;;;4.32;1.00;;;25.70;61.30;;;;;;7395553;19;20003;-87
2022/06/03 14:25:20;;;;;;;2.10;1.10;;;25.40;63.70;;;;;;7398839;19;20014;-88
2022/06/03 14:28:02;;;;;;;2.08;1.20;;;25.60;62.70;;;;;;7396751;19;20038;-88
2022/06/03 14:30:57;;;;;;;2.58;1.30;;;25.50;61.90;;;;;;7395285;19;20022;-88
2022/06/03 14:33:39;;;;;;;;;;;25.50;61.90;;;;;;7393684;19;20573;-88
2022/06/03 14:36:18;;;;;;;1.75;1.40;;;25.50;63.10;;;;;;7392748;19;19952;-87
2022/06/03 14:39:00;;;;;;;4.68;1.27;;;25.80;62.30;;;;;;7391219;19;20010;-88
2022/06/03 14:41:43;;;;;;;2.03;1.10;;;25.80;61.90;;;;;;7394542;19;20018;-88
2022/06/03 14:44:28;;;;;;;2.53;1.17;;;25.70;61.90;;;;;;7397080;19;20006;-89
2022/06/03 14:47:06;;;;;;;1.65;1.15;;;25.90;60.80;;;;;;7393677;19;20014;-88
2022/06/03 14:49:44;;;;;;;2.05;1.00;;;26.00;62.00;;;;;;7392833;19;20014;-89
2022/06/03 14:52:26;;;;;;;4.47;1.10;;;25.90;61.30;;;;;;7395406;19;20015;-88
2022/06/03 14:55:03;;;;;;;5.43;1.30;;;25.80;61.30;;;;;;7395318;19;20018;-88
2022/06/03 14:57:41;;;;;;;1.30;1.20;;;26.00;61.50;;;;;;7394427;19;20035;-88
2022/06/03 15:00:32;;;;;;;2.63;1.35;;;25.90;59.90;;;;;;7397904;19;20094;-87
2022/06/03 15:03:19;;;;;;;2.33;1.15;;;25.80;60.20;;;;;;7397114;19;20532;-87